createdAt,value
2022-11-04T00:00:12.742Z,100891.86
2022-11-04T00:01:14.601Z,100887.55
2022-11-04T00:02:16.504Z,100891.02
2022-11-04T00:03:18.351Z,100886.66
2022-11-04T00:04:20.189Z,100888.42
2022-11-04T00:05:22.003Z,100885.81
2022-11-04T00:06:23.875Z,100892.78
2022-11-04T00:07:25.705Z,100887.58
2022-11-04T00:08:27.553Z,100888.44
2022-11-04T00:09:29.378Z,100902.31
2022-11-04T00:10:31.341Z,100895.40
2022-11-04T00:11:33.226Z,100891.91
2022-11-04T00:12:35.062Z,100895.38
2022-11-04T00:13:36.893Z,100887.55
2022-11-04T00:14:38.715Z,100886.66
2022-11-04T00:15:40.541Z,100891.86
2022-11-04T00:16:42.522Z,100890.13
2022-11-04T00:17:44.344Z,100893.58
2022-11-04T00:18:46.162Z,100894.44
2022-11-04T00:19:47.983Z,100894.42
2022-11-04T00:20:49.818Z,100893.56
2022-11-04T00:21:51.707Z,100882.29
2022-11-04T00:22:53.517Z,100889.22
2022-11-04T00:23:55.341Z,100892.72
2022-11-04T00:24:57.170Z,100890.98
2022-11-04T00:25:59.042Z,100887.52
2022-11-04T00:27:00.892Z,100890.98
2022-11-04T00:28:02.719Z,100890.98
2022-11-04T00:29:04.544Z,100897.02
2022-11-04T00:30:06.488Z,100897.02
2022-11-04T00:31:08.297Z,100893.56
2022-11-04T00:32:11.284Z,100897.02
2022-11-04T00:33:13.097Z,100897.90
2022-11-04T00:34:14.929Z,100891.82
2022-11-04T00:35:16.747Z,100887.49
2022-11-04T00:36:18.768Z,100884.00
2022-11-04T00:37:20.655Z,100886.58
2022-11-04T00:38:22.484Z,100882.23
2022-11-04T00:39:24.306Z,100880.47
2022-11-04T00:40:26.124Z,100885.67
2022-11-04T00:41:28.555Z,100881.33
2022-11-04T00:42:30.638Z,100884.79
2022-11-04T00:43:32.489Z,100879.53
2022-11-04T00:44:34.301Z,100879.52
2022-11-04T00:45:36.124Z,100888.16
2022-11-04T00:46:37.960Z,100882.03
2022-11-04T00:47:39.834Z,100880.33
2022-11-04T00:48:41.681Z,100882.91
2022-11-04T00:49:43.492Z,100890.67
2022-11-04T00:50:45.414Z,100888.86
2022-11-04T00:51:47.250Z,100888.77
2022-11-04T00:52:49.128Z,100888.70
2022-11-04T00:53:50.951Z,100888.69
2022-11-04T00:54:52.768Z,100884.32
2022-11-04T00:55:54.589Z,100885.14
2022-11-04T00:56:56.500Z,100884.28
2022-11-04T00:57:58.377Z,100873.83
2022-11-04T00:59:00.179Z,100882.45
2022-11-04T01:00:02.011Z,100879.84
2022-11-04T01:01:03.893Z,100878.13
2022-11-04T01:02:05.941Z,100880.72
2022-11-04T01:03:08.265Z,100883.37
2022-11-04T01:04:10.286Z,100887.67
2022-11-04T01:05:12.117Z,100886.80
2022-11-04T01:06:14.334Z,100882.47
2022-11-04T01:07:16.158Z,100884.20
2022-11-04T01:08:18.012Z,100885.05
2022-11-04T01:09:19.815Z,100892.03
2022-11-04T01:10:21.712Z,100898.06
2022-11-04T01:11:23.531Z,100893.72
2022-11-04T01:12:25.436Z,100892.80
2022-11-04T01:13:27.307Z,100895.38
2022-11-04T01:14:29.123Z,100898.84
2022-11-04T01:15:30.955Z,100895.34
2022-11-04T01:16:32.779Z,100894.48
2022-11-04T01:17:34.603Z,100900.52
2022-11-04T01:18:36.466Z,100901.42
2022-11-04T01:19:38.285Z,100897.84
2022-11-04T01:20:40.189Z,100904.73
2022-11-04T01:21:42.007Z,100903.76
2022-11-04T01:22:43.817Z,100892.45
2022-11-04T01:23:45.657Z,100897.59
2022-11-04T01:24:47.509Z,100900.20
2022-11-04T01:25:49.319Z,100901.95
2022-11-04T01:26:51.349Z,100898.46
2022-11-04T01:27:53.268Z,100899.33
2022-11-04T01:28:55.108Z,100905.37
2022-11-04T01:29:57.278Z,100901.87
2022-11-04T01:30:59.203Z,100907.89
2022-11-04T01:32:01.020Z,100900.88
2022-11-04T01:33:03.131Z,100908.64
2022-11-04T01:34:05.274Z,100910.35
2022-11-04T01:35:07.093Z,100910.30
2022-11-04T01:36:09.184Z,100911.08
2022-11-04T01:37:11.011Z,100911.89
2022-11-04T01:38:13.412Z,100919.59
2022-11-04T01:39:15.649Z,100917.75
2022-11-04T01:40:18.001Z,100911.67
2022-11-04T01:41:19.907Z,100908.15
2022-11-04T01:42:21.664Z,100909.82
2022-11-04T01:43:25.042Z,100908.06
2022-11-04T01:44:26.844Z,100909.77
2022-11-04T01:45:28.672Z,100914.95
2022-11-04T01:46:30.512Z,100913.25
2022-11-04T01:47:32.329Z,100920.17
2022-11-04T01:48:34.446Z,100910.69
2022-11-04T01:49:39.176Z,100920.20
2022-11-04T01:50:40.434Z,100914.98
2022-11-04T01:51:42.255Z,100914.98
2022-11-04T01:52:44.074Z,100913.31
2022-11-04T01:53:45.893Z,100915.88
2022-11-04T01:54:47.744Z,100915.94
2022-11-04T01:55:49.535Z,100920.23
2022-11-04T01:56:51.354Z,100918.48
2022-11-04T01:57:53.179Z,100914.15
2022-11-04T01:58:55.084Z,100918.50
2022-11-04T01:59:56.942Z,100915.91
2022-11-04T02:00:58.800Z,100917.61
2022-11-04T02:02:00.783Z,100916.77
2022-11-04T02:03:02.679Z,100922.00
2022-11-04T02:04:04.484Z,100918.50
2022-11-04T02:05:06.329Z,100911.49
2022-11-04T02:06:08.653Z,100913.23
2022-11-04T02:07:10.788Z,100912.36
2022-11-04T02:08:12.605Z,100918.39
2022-11-04T02:09:14.403Z,100923.59
2022-11-04T02:10:16.608Z,100922.72
2022-11-04T02:11:18.443Z,100928.83
2022-11-04T02:12:20.258Z,100930.53
2022-11-04T02:13:22.072Z,100930.56
2022-11-04T02:14:23.918Z,100934.92
2022-11-04T02:15:25.853Z,100938.44
2022-11-04T02:16:27.634Z,100941.09
2022-11-04T02:17:29.656Z,100935.93
2022-11-04T02:18:31.458Z,100948.98
2022-11-04T02:19:33.260Z,100943.81
2022-11-04T02:20:35.112Z,100943.78
2022-11-04T02:21:36.920Z,100957.62
2022-11-04T02:22:38.713Z,100945.52
2022-11-04T02:23:40.518Z,100948.14
2022-11-04T02:24:42.334Z,100943.81
2022-11-04T02:25:44.187Z,100941.22
2022-11-04T02:26:46.015Z,100954.20
2022-11-04T02:27:48.164Z,100949.88
2022-11-04T02:28:50.003Z,100956.70
2022-11-04T02:29:51.878Z,100953.21
2022-11-04T02:30:53.731Z,100951.45
2022-11-04T02:31:55.535Z,100954.02
2022-11-04T02:32:57.346Z,100955.72
2022-11-04T02:33:59.177Z,100952.27
2022-11-04T02:35:01.320Z,100960.92
2022-11-04T02:36:03.198Z,100952.27
2022-11-04T02:37:05.020Z,100964.34
2022-11-04T02:38:06.831Z,100960.88
2022-11-04T02:39:08.652Z,100962.64
2022-11-04T02:40:10.885Z,100970.47
2022-11-04T02:41:12.730Z,100962.70
2022-11-04T02:42:14.536Z,100953.96
2022-11-04T02:43:16.332Z,100963.45
2022-11-04T02:44:18.147Z,100956.50
2022-11-04T02:45:20.039Z,100958.26
2022-11-04T02:46:21.870Z,100958.26
2022-11-04T02:47:23.704Z,100964.28
2022-11-04T02:48:25.536Z,100966.02
2022-11-04T02:49:27.347Z,100969.51
2022-11-04T02:50:29.259Z,100972.94
2022-11-04T02:51:31.422Z,100964.25
2022-11-04T02:52:33.216Z,100958.23
2022-11-04T02:53:35.026Z,100964.31
2022-11-04T02:54:36.817Z,100971.27
2022-11-04T02:55:38.633Z,100967.81
2022-11-04T02:56:40.469Z,100974.73
2022-11-04T02:57:42.600Z,100973.90
2022-11-04T02:58:44.430Z,100970.44
2022-11-04T02:59:46.249Z,100979.92
2022-11-04T03:00:48.118Z,100971.27
2022-11-04T03:01:50.185Z,100970.38
2022-11-04T03:02:52.069Z,100978.11
2022-11-04T03:03:53.873Z,100970.16
2022-11-04T03:04:56.644Z,100973.56
2022-11-04T03:05:58.641Z,100976.09
2022-11-04T03:07:01.018Z,100986.48
2022-11-04T03:08:03.313Z,100989.87
2022-11-04T03:09:05.249Z,100988.95
2022-11-04T03:10:07.278Z,100988.91
2022-11-04T03:11:09.114Z,100994.11
2022-11-04T03:12:10.976Z,100990.61
2022-11-04T03:13:12.788Z,100990.64
2022-11-04T03:14:14.611Z,100992.38
2022-11-04T03:15:16.435Z,100988.02
2022-11-04T03:16:18.568Z,100991.54
2022-11-04T03:17:20.407Z,100987.25
2022-11-04T03:18:24.709Z,100988.14
2022-11-04T03:19:26.949Z,100986.45
2022-11-04T03:20:28.788Z,100991.64
2022-11-04T03:21:30.613Z,100987.34
2022-11-04T03:22:32.468Z,100982.22
2022-11-04T03:23:34.289Z,100989.20
2022-11-04T03:24:36.103Z,100983.23
2022-11-04T03:25:37.921Z,100989.36
2022-11-04T03:26:39.753Z,100985.06
2022-11-04T03:27:41.634Z,100986.88
2022-11-04T03:28:43.465Z,100979.98
2022-11-04T03:29:45.270Z,100975.69
2022-11-04T03:30:47.097Z,100980.91
2022-11-04T03:31:48.950Z,100968.80
2022-11-04T03:32:50.829Z,100973.16
2022-11-04T03:33:52.660Z,100971.42
2022-11-04T03:34:54.493Z,100973.98
2022-11-04T03:35:56.296Z,100973.95
2022-11-04T03:36:58.228Z,100979.95
2022-11-04T03:38:00.110Z,100985.02
2022-11-04T03:39:01.951Z,100989.33
2022-11-04T03:40:03.869Z,100988.46
2022-11-04T03:41:05.699Z,100990.09
2022-11-04T03:42:07.544Z,101001.25
2022-11-04T03:43:09.897Z,101001.12
2022-11-04T03:44:12.013Z,101001.89
2022-11-04T03:45:13.834Z,101001.83
2022-11-04T03:46:16.300Z,100998.36
2022-11-04T03:47:18.251Z,101006.12
2022-11-04T03:48:20.128Z,101001.83
2022-11-04T03:49:21.941Z,101002.69
2022-11-04T03:50:23.961Z,101006.09
2022-11-04T03:51:25.791Z,101008.55
2022-11-04T03:52:27.629Z,101006.91
2022-11-04T03:53:29.484Z,101009.58
2022-11-04T03:54:31.305Z,101007.91
2022-11-04T03:55:33.118Z,101009.67
2022-11-04T03:56:34.961Z,101008.84
2022-11-04T03:57:36.794Z,101012.30
2022-11-04T03:58:38.656Z,101009.67
2022-11-04T03:59:40.478Z,101005.32
2022-11-04T04:00:42.407Z,101017.50
2022-11-04T04:01:44.283Z,101010.61
2022-11-04T04:02:46.276Z,101013.23
2022-11-04T04:03:48.144Z,101023.66
2022-11-04T04:04:49.981Z,101017.63
2022-11-04T04:05:51.794Z,101017.66
2022-11-04T04:06:53.612Z,101014.13
2022-11-04T04:07:55.420Z,101013.30
2022-11-04T04:08:57.297Z,101012.44
2022-11-04T04:09:59.133Z,101011.53
2022-11-04T04:11:01.051Z,101009.80
2022-11-04T04:12:02.877Z,101021.92
2022-11-04T04:13:04.709Z,101016.66
2022-11-04T04:14:06.585Z,101021.92
2022-11-04T04:15:08.397Z,101023.72
2022-11-04T04:16:10.230Z,101025.52
2022-11-04T04:17:12.042Z,101029.97
2022-11-04T04:18:13.949Z,101026.57
2022-11-04T04:19:15.813Z,101034.45
2022-11-04T04:20:17.843Z,101033.68
2022-11-04T04:21:19.665Z,101033.72
2022-11-04T04:22:21.510Z,101039.90
2022-11-04T04:23:23.308Z,101031.23
2022-11-04T04:24:25.178Z,101037.33
2022-11-04T04:25:26.993Z,101046.88
2022-11-04T04:26:28.824Z,101043.45
2022-11-04T04:27:30.635Z,101046.92
2022-11-04T04:28:32.469Z,101046.95
2022-11-04T04:29:34.317Z,101049.58
2022-11-04T04:30:36.244Z,101047.01
2022-11-04T04:31:38.070Z,101049.63
2022-11-04T04:32:39.899Z,101054.03
2022-11-04T04:33:41.785Z,101053.20
2022-11-04T04:34:43.661Z,101053.22
2022-11-04T04:35:45.487Z,101053.20
2022-11-04T04:36:47.299Z,101052.23
2022-11-04T04:37:49.098Z,101056.56
2022-11-04T04:38:50.927Z,101055.73
2022-11-04T04:39:52.799Z,101056.56
2022-11-04T04:40:54.660Z,101051.34
2022-11-04T04:41:56.429Z,101056.50
2022-11-04T04:42:58.295Z,101068.53
2022-11-04T04:44:00.095Z,101070.10
2022-11-04T04:45:01.976Z,101070.87
2022-11-04T04:46:03.952Z,101071.77
2022-11-04T04:47:05.793Z,101080.45
2022-11-04T04:48:07.663Z,101080.55
2022-11-04T04:49:09.525Z,101075.45
2022-11-04T04:50:11.684Z,101075.55
2022-11-04T04:51:13.529Z,101074.78
2022-11-04T04:52:15.328Z,101071.41
2022-11-04T04:53:17.143Z,101068.81
2022-11-04T04:54:18.970Z,101074.84
2022-11-04T04:55:21.612Z,101074.78
2022-11-04T04:56:23.447Z,101072.92
2022-11-04T04:57:25.265Z,101071.13
2022-11-04T04:58:27.083Z,101072.73
2022-11-04T04:59:28.901Z,101078.73
2022-11-04T05:00:30.783Z,101078.73
2022-11-04T05:01:32.818Z,101081.26
2022-11-04T05:02:34.805Z,101078.59
2022-11-04T05:03:41.020Z,101074.23
2022-11-04T05:04:40.377Z,101072.41
2022-11-04T05:05:42.622Z,101080.16
2022-11-04T05:06:44.549Z,101076.70
2022-11-04T05:07:46.385Z,101080.16
2022-11-04T05:08:48.196Z,101087.16
2022-11-04T05:09:50.022Z,101082.89
2022-11-04T05:10:52.857Z,101085.61
2022-11-04T05:11:54.712Z,101094.41
2022-11-04T05:12:56.526Z,101096.23
2022-11-04T05:13:58.346Z,101095.40
2022-11-04T05:15:00.188Z,101095.43
2022-11-04T05:16:02.028Z,101101.49
2022-11-04T05:17:03.849Z,101108.48
2022-11-04T05:18:05.859Z,101113.67
2022-11-04T05:19:07.795Z,101111.91
2022-11-04T05:20:10.263Z,101111.87
2022-11-04T05:21:12.140Z,101114.48
2022-11-04T05:22:13.972Z,101117.04
2022-11-04T05:23:15.797Z,101122.27
2022-11-04T05:24:17.615Z,101122.30
2022-11-04T05:25:19.454Z,101118.00
2022-11-04T05:26:21.427Z,101118.94
2022-11-04T05:27:23.244Z,101119.87
2022-11-04T05:28:25.061Z,101124.26
2022-11-04T05:29:26.897Z,101121.73
2022-11-04T05:30:28.819Z,101119.16
2022-11-04T05:31:30.787Z,101126.89
2022-11-04T05:32:32.987Z,101119.06
2022-11-04T05:33:34.815Z,101113.90
2022-11-04T05:34:36.618Z,101122.47
2022-11-04T05:35:38.485Z,101113.77
2022-11-04T05:36:40.463Z,101120.77
2022-11-04T05:37:42.271Z,101120.70
2022-11-04T05:38:44.086Z,101128.39
2022-11-04T05:39:45.920Z,101125.67
2022-11-04T05:40:48.885Z,101122.91
2022-11-04T05:41:50.777Z,101122.00
2022-11-04T05:42:53.630Z,101121.14
2022-11-04T05:43:55.461Z,101127.16
2022-11-04T05:44:57.264Z,101122.77
2022-11-04T05:45:59.051Z,101132.22
2022-11-04T05:47:00.909Z,101128.77
2022-11-04T05:48:03.281Z,101126.89
2022-11-04T05:49:05.102Z,101128.59
2022-11-04T05:50:07.041Z,101131.95
2022-11-04T05:51:09.263Z,101136.23
2022-11-04T05:52:11.138Z,101138.00
2022-11-04T05:53:13.172Z,101136.34
2022-11-04T05:54:15.171Z,101140.67
2022-11-04T05:55:17.356Z,101145.90
2022-11-04T05:56:19.237Z,101146.80
2022-11-04T05:57:22.154Z,101140.67
2022-11-04T05:58:23.964Z,101143.27
2022-11-04T05:59:25.832Z,101135.41
2022-11-04T06:00:27.691Z,101134.44
2022-11-04T06:01:29.603Z,101134.44
2022-11-04T06:02:31.661Z,101135.27
2022-11-04T06:03:33.558Z,101134.41
2022-11-04T06:04:35.403Z,101134.33
2022-11-04T06:05:37.217Z,101133.44
2022-11-04T06:06:39.544Z,101136.09
2022-11-04T06:07:41.391Z,101146.63
2022-11-04T06:08:45.306Z,101141.57
2022-11-04T06:09:47.228Z,101141.57
2022-11-04T06:10:52.169Z,101150.30
2022-11-04T06:11:54.041Z,101154.73
2022-11-04T06:12:56.040Z,101157.42
2022-11-04T06:13:57.902Z,101160.06
2022-11-04T06:14:59.728Z,101155.70
2022-11-04T06:16:01.534Z,101152.23
2022-11-04T06:17:03.367Z,101155.63
2022-11-04T06:18:05.341Z,101153.06
2022-11-04T06:19:09.579Z,101156.59
2022-11-04T06:20:11.030Z,101154.00
2022-11-04T06:21:12.837Z,101157.53
2022-11-04T06:22:14.742Z,101160.99
2022-11-04T06:23:16.646Z,101162.76
2022-11-04T06:24:18.463Z,101160.92
2022-11-04T06:25:20.324Z,101168.68
2022-11-04T06:26:26.836Z,101165.98
2022-11-04T06:27:25.748Z,101172.86
2022-11-04T06:28:27.597Z,101172.91
2022-11-04T06:29:29.409Z,101172.07
2022-11-04T06:30:31.219Z,101167.84
2022-11-04T06:31:33.025Z,101177.44
2022-11-04T06:32:34.854Z,101179.27
2022-11-04T06:33:37.270Z,101180.20
2022-11-04T06:34:39.194Z,101182.01
2022-11-04T06:35:41.036Z,101188.14
2022-11-04T06:36:42.845Z,101186.47
2022-11-04T06:37:44.807Z,101183.98
2022-11-04T06:38:47.253Z,101178.84
2022-11-04T06:39:49.075Z,101174.55
2022-11-04T06:40:51.595Z,101174.48
2022-11-04T06:41:55.484Z,101182.37
2022-11-04T06:42:57.023Z,101177.98
2022-11-04T06:43:58.919Z,101182.08
2022-11-04T06:45:00.733Z,101182.08
2022-11-04T06:46:02.526Z,101176.84
2022-11-04T06:47:04.379Z,101177.71
2022-11-04T06:48:06.172Z,101181.24
2022-11-04T06:49:08.451Z,101184.70
2022-11-04T06:50:10.681Z,101185.64
2022-11-04T06:51:13.097Z,101174.45
2022-11-04T06:52:14.923Z,101170.22
2022-11-04T06:53:17.847Z,101178.95
2022-11-04T06:54:19.730Z,101180.68
2022-11-04T06:55:21.522Z,101173.72
2022-11-04T06:56:23.563Z,101179.78
2022-11-04T06:57:25.948Z,101178.05
2022-11-04T06:58:28.145Z,101175.48
2022-11-04T06:59:29.964Z,101181.55
2022-11-04T07:00:31.888Z,101176.37
2022-11-04T07:01:33.795Z,101185.17
2022-11-04T07:02:35.729Z,101173.08
2022-11-04T07:03:37.748Z,101180.01
2022-11-04T07:04:39.666Z,101185.11
2022-11-04T07:05:41.473Z,101185.01
2022-11-04T07:06:44.663Z,101185.84
2022-11-04T07:07:47.406Z,101186.70
2022-11-04T07:08:49.719Z,101187.61
2022-11-04T07:09:51.562Z,101191.00
2022-11-04T07:10:53.380Z,101191.11
2022-11-04T07:11:55.210Z,101192.06
2022-11-04T07:12:57.046Z,101187.88
2022-11-04T07:13:58.889Z,101192.27
2022-11-04T07:15:01.916Z,101192.36
2022-11-04T07:16:03.753Z,101194.09
2022-11-04T07:17:05.566Z,101195.86
2022-11-04T07:18:07.834Z,101193.20
2022-11-04T07:19:09.750Z,101187.88
2022-11-04T07:20:11.891Z,101194.73
2022-11-04T07:21:13.699Z,101191.27
2022-11-04T07:22:15.817Z,101188.70
2022-11-04T07:23:17.603Z,101190.50
2022-11-04T07:24:19.452Z,101193.94
2022-11-04T07:25:21.324Z,101192.23
2022-11-04T07:26:23.140Z,101192.20
2022-11-04T07:27:25.193Z,101193.03
2022-11-04T07:28:27.004Z,101187.84
2022-11-04T07:29:28.800Z,101186.97
2022-11-04T07:30:30.751Z,101197.46
2022-11-04T07:31:32.597Z,101191.46
2022-11-04T07:32:34.420Z,101193.16
2022-11-04T07:33:36.234Z,101192.23
2022-11-04T07:34:38.063Z,101186.11
2022-11-04T07:35:40.322Z,101198.23
2022-11-04T07:36:42.239Z,101196.44
2022-11-04T07:37:44.063Z,101192.10
2022-11-04T07:38:46.478Z,101200.00
2022-11-04T07:39:48.373Z,101197.40
2022-11-04T07:40:50.192Z,101200.83
2022-11-04T07:41:58.286Z,101197.33
2022-11-04T07:42:56.300Z,101203.46
2022-11-04T07:43:58.102Z,101193.09
2022-11-04T07:45:00.417Z,101201.73
2022-11-04T07:46:02.482Z,101193.94
2022-11-04T07:47:04.722Z,101202.66
2022-11-04T07:48:06.889Z,101195.83
2022-11-04T07:49:08.878Z,101204.59
2022-11-04T07:50:13.321Z,101199.45
2022-11-04T07:51:15.270Z,101196.02
2022-11-04T07:52:17.120Z,101204.74
2022-11-04T07:53:18.935Z,101199.61
2022-11-04T07:54:20.762Z,101210.10
2022-11-04T07:55:22.621Z,101205.00
2022-11-04T07:56:24.517Z,101204.16
2022-11-04T07:57:26.343Z,101211.19
2022-11-04T07:58:28.170Z,101213.02
2022-11-04T07:59:30.015Z,101199.14
2022-11-04T08:00:31.841Z,101202.67
2022-11-04T08:01:33.732Z,101206.13
2022-11-04T08:02:35.690Z,101211.39
2022-11-04T08:03:37.542Z,101206.25
2022-11-04T08:04:39.353Z,101207.98
2022-11-04T08:05:41.231Z,101207.09
2022-11-04T08:06:43.090Z,101207.98
2022-11-04T08:07:44.935Z,101209.69
2022-11-04T08:08:46.826Z,101209.60
2022-11-04T08:09:49.167Z,101209.52
2022-11-04T08:10:51.116Z,101209.52
2022-11-04T08:11:53.017Z,101208.64
2022-11-04T08:12:54.840Z,101206.05
2022-11-04T08:13:56.661Z,101200.75
2022-11-04T08:14:58.488Z,101200.75
2022-11-04T08:16:00.333Z,101213.91
2022-11-04T08:17:02.225Z,101212.27
2022-11-04T08:18:04.054Z,101206.25
2022-11-04T08:19:05.926Z,101215.80
2022-11-04T08:20:07.943Z,101207.96
2022-11-04T08:21:09.789Z,101207.96
2022-11-04T08:22:11.653Z,101206.11
2022-11-04T08:23:13.473Z,101205.98
2022-11-04T08:24:15.305Z,101208.55
2022-11-04T08:25:17.245Z,101209.42
2022-11-04T08:26:19.332Z,101203.38
2022-11-04T08:27:21.550Z,101202.58
2022-11-04T08:28:23.350Z,101207.84
2022-11-04T08:29:25.171Z,101203.50
2022-11-04T08:30:27.009Z,101207.90
2022-11-04T08:31:28.847Z,101210.56
2022-11-04T08:32:30.715Z,101206.25
2022-11-04T08:33:32.543Z,101202.84
2022-11-04T08:34:34.425Z,101202.10
2022-11-04T08:35:40.868Z,101211.66
2022-11-04T08:36:40.089Z,101209.13
2022-11-04T08:37:41.968Z,101201.38
2022-11-04T08:38:43.837Z,101202.27
2022-11-04T08:39:45.647Z,101207.50
2022-11-04T08:40:47.472Z,101197.99
2022-11-04T08:41:49.706Z,101198.02
2022-11-04T08:42:51.687Z,101203.28
2022-11-04T08:43:53.500Z,101203.31
2022-11-04T08:44:55.328Z,101205.10
2022-11-04T08:45:57.173Z,101206.84
2022-11-04T08:46:58.983Z,101203.36
2022-11-04T08:48:05.299Z,101200.77
2022-11-04T08:49:09.493Z,101205.16
2022-11-04T08:50:08.252Z,101206.05
2022-11-04T08:51:10.075Z,101211.28
2022-11-04T08:52:11.915Z,101206.08
2022-11-04T08:53:13.805Z,101201.80
2022-11-04T08:54:15.616Z,101197.48
2022-11-04T08:55:17.444Z,101200.14
2022-11-04T08:56:19.371Z,101203.63
2022-11-04T08:57:21.179Z,101199.36
2022-11-04T08:58:23.031Z,101201.12
2022-11-04T08:59:24.858Z,101200.27
2022-11-04T09:00:26.741Z,101202.91
2022-11-04T09:01:32.697Z,101200.33
2022-11-04T09:02:32.133Z,101202.11
2022-11-04T09:03:34.084Z,101206.51
2022-11-04T09:04:35.927Z,101197.83
2022-11-04T09:05:37.749Z,101205.66
2022-11-04T09:06:39.555Z,101209.16
2022-11-04T09:07:41.526Z,101201.38
2022-11-04T09:08:43.410Z,101199.67
2022-11-04T09:09:45.247Z,101204.90
2022-11-04T09:10:47.072Z,101200.55
2022-11-04T09:11:48.909Z,101203.16
2022-11-04T09:12:50.760Z,101209.29
2022-11-04T09:13:52.643Z,101199.73
2022-11-04T09:14:54.469Z,101198.92
2022-11-04T09:15:56.304Z,101197.19
2022-11-04T09:16:58.243Z,101205.02
2022-11-04T09:18:00.140Z,101199.00
2022-11-04T09:19:02.050Z,101192.95
2022-11-04T09:20:03.956Z,101199.05
2022-11-04T09:21:05.785Z,101194.70
2022-11-04T09:22:08.105Z,101199.96
2022-11-04T09:23:10.413Z,101197.38
2022-11-04T09:24:12.520Z,101202.61
2022-11-04T09:25:14.370Z,101199.19
2022-11-04T09:26:16.923Z,101204.40
2022-11-04T09:27:18.755Z,101195.75
2022-11-04T09:28:20.683Z,101193.19
2022-11-04T09:29:22.552Z,101195.84
2022-11-04T09:30:24.975Z,101187.20
2022-11-04T09:31:26.942Z,101187.23
2022-11-04T09:32:28.762Z,101189.87
2022-11-04T09:33:30.592Z,101191.61
2022-11-04T09:34:32.461Z,101191.63
2022-11-04T09:35:34.451Z,101187.34
2022-11-04T09:36:37.005Z,101189.97
2022-11-04T09:37:38.828Z,101189.99
2022-11-04T09:38:40.696Z,101188.25
2022-11-04T09:39:43.718Z,101185.64
2022-11-04T09:40:45.611Z,101184.80
2022-11-04T09:41:47.758Z,101185.69
2022-11-04T09:42:49.565Z,101190.92
2022-11-04T09:43:51.404Z,101190.06
2022-11-04T09:45:20.149Z,101179.66
2022-11-04T09:45:57.474Z,101185.75
2022-11-04T09:46:59.320Z,101187.52
2022-11-04T09:48:01.155Z,101181.40
2022-11-04T09:49:02.962Z,101182.16
2022-11-04T09:50:05.284Z,101188.19
2022-11-04T09:51:12.836Z,101186.42
2022-11-04T09:52:10.735Z,101184.65
2022-11-04T09:53:12.654Z,101183.73
2022-11-04T09:54:14.876Z,101186.28
2022-11-04T09:55:16.729Z,101183.69
2022-11-04T09:56:18.534Z,101181.05
2022-11-04T09:57:20.411Z,101186.24
2022-11-04T09:58:22.297Z,101181.85
2022-11-04T09:59:24.155Z,101180.96
2022-11-04T10:00:26.043Z,101186.10
2022-11-04T10:01:29.810Z,101182.58
2022-11-04T10:02:31.910Z,101188.68
2022-11-04T10:03:33.802Z,101190.47
2022-11-04T10:04:35.728Z,101192.22
2022-11-04T10:05:37.596Z,101187.95
2022-11-04T10:06:39.595Z,101191.42
2022-11-04T10:07:41.478Z,101183.59
2022-11-04T10:08:43.327Z,101188.73
2022-11-04T10:09:45.498Z,101175.69
2022-11-04T10:10:47.486Z,101188.70
2022-11-04T10:11:49.322Z,101180.00
2022-11-04T10:12:51.154Z,101184.36
2022-11-04T10:13:52.981Z,101186.10
2022-11-04T10:14:54.882Z,101190.44
2022-11-04T10:15:56.754Z,101177.45
2022-11-04T10:16:58.601Z,101181.80
2022-11-04T10:18:00.531Z,101175.80
2022-11-04T10:19:02.355Z,101175.82
2022-11-04T10:20:04.285Z,101171.48
2022-11-04T10:21:06.149Z,101172.35
2022-11-04T10:22:08.002Z,101171.43
2022-11-04T10:23:12.027Z,101174.02
2022-11-04T10:24:14.790Z,101175.70
2022-11-04T10:25:16.656Z,101169.61
2022-11-04T10:26:18.551Z,101169.56
2022-11-04T10:27:20.349Z,101173.01
2022-11-04T10:28:22.200Z,101171.27
2022-11-04T10:29:24.022Z,101166.95
2022-11-04T10:30:25.873Z,101170.42
2022-11-04T10:31:27.777Z,101168.69
2022-11-04T10:32:29.716Z,101162.62
2022-11-04T10:33:31.687Z,101158.25
2022-11-04T10:34:33.506Z,101166.06
2022-11-04T10:35:35.333Z,101160.88
2022-11-04T10:36:37.203Z,101160.92
2022-11-04T10:37:40.617Z,101160.13
2022-11-04T10:38:42.813Z,101160.20
2022-11-04T10:39:44.755Z,101157.63
2022-11-04T10:40:46.640Z,101159.42
2022-11-04T10:41:48.545Z,101153.39
2022-11-04T10:42:50.396Z,101152.52
2022-11-04T10:43:52.218Z,101149.05
2022-11-04T10:44:54.052Z,101158.63
2022-11-04T10:45:55.888Z,101156.88
2022-11-04T10:46:57.868Z,101149.06
2022-11-04T10:47:59.706Z,101151.65
2022-11-04T10:49:01.524Z,101161.23
2022-11-04T10:51:07.100Z,101155.09
2022-11-04T10:52:08.956Z,101154.28
2022-11-04T10:53:11.016Z,101160.38
2022-11-04T10:54:13.020Z,101154.30
2022-11-04T10:55:14.838Z,101153.45
2022-11-04T10:56:16.843Z,101148.27
2022-11-04T10:57:18.813Z,101153.47
2022-11-04T10:58:20.650Z,101152.58
2022-11-04T10:59:22.495Z,101146.50
2022-11-04T11:00:24.317Z,101156.92
2022-11-04T11:01:26.340Z,101153.47
2022-11-04T11:02:28.368Z,101150.00
2022-11-04T11:03:30.238Z,101147.37
2022-11-04T11:04:32.076Z,101149.93
2022-11-04T11:05:33.918Z,101151.65
2022-11-04T11:06:35.736Z,101150.77
2022-11-04T11:07:37.698Z,101149.87
2022-11-04T11:08:39.575Z,101149.00
2022-11-04T11:09:41.388Z,101151.58
2022-11-04T11:10:43.396Z,101156.80
2022-11-04T11:11:45.326Z,101151.56
2022-11-04T11:12:51.763Z,101155.00
2022-11-04T11:13:50.827Z,101155.88
2022-11-04T11:14:52.648Z,101158.47
2022-11-04T11:15:54.622Z,101156.70
2022-11-04T11:16:56.422Z,101159.31
2022-11-04T11:17:58.291Z,101157.59
2022-11-04T11:19:00.107Z,101160.23
2022-11-04T11:20:01.993Z,101158.55
2022-11-04T11:21:03.864Z,101158.59
2022-11-04T11:22:05.698Z,101162.93
2022-11-04T11:23:07.970Z,101162.05
2022-11-04T11:24:10.007Z,101161.20
2022-11-04T11:25:11.811Z,101163.83
2022-11-04T11:26:13.728Z,101161.23
2022-11-04T11:27:15.684Z,101165.53
2022-11-04T11:28:17.542Z,101156.02
2022-11-04T11:29:19.369Z,101159.47
2022-11-04T11:30:21.189Z,101157.66
2022-11-04T11:31:23.026Z,101161.14
2022-11-04T11:32:24.841Z,101166.37
2022-11-04T11:33:26.694Z,101160.28
2022-11-04T11:34:28.513Z,101161.19
2022-11-04T11:35:30.335Z,101162.05
2022-11-04T11:36:32.157Z,101152.52
2022-11-04T11:37:33.975Z,101154.25
2022-11-04T11:38:35.831Z,101154.30
2022-11-04T11:39:37.653Z,101158.66
2022-11-04T11:40:57.359Z,101155.16
2022-11-04T11:41:45.993Z,101156.08
2022-11-04T11:42:46.901Z,101156.10
2022-11-04T11:43:48.753Z,101153.52
2022-11-04T11:44:50.582Z,101154.38
2022-11-04T11:45:52.401Z,101152.66
2022-11-04T11:46:54.215Z,101145.74
2022-11-04T11:47:56.033Z,101145.74